createdAt,value
2018-06-14T06:43:21.545Z,6.5
2018-06-14T06:53:35.748Z,4.6
2018-06-14T07:03:50.082Z,4.6
2018-06-14T07:14:36.541Z,4.9
2018-06-14T07:24:48.176Z,4.3
2018-06-14T07:36:16.967Z,4.7
2018-06-14T07:46:57.307Z,4.9
2018-06-14T07:57:12.790Z,5.2
2018-06-14T08:07:57.929Z,4.0
2018-06-14T08:18:42.813Z,4.9
2018-06-14T08:29:37.558Z,4.8
2018-06-14T08:39:52.510Z,5.8
2018-06-14T08:50:06.082Z,4.0
2018-06-14T09:00:57.401Z,4.5
2018-06-14T09:12:24.346Z,3.5
2018-06-14T09:22:38.036Z,7.5
2018-06-14T09:32:52.994Z,4.3
2018-06-14T09:43:28.870Z,2.7
2018-06-14T09:56:20.914Z,3.5
2018-06-14T10:13:08.152Z,2.9
2018-06-14T10:47:35.796Z,3.6
2018-06-14T10:57:49.759Z,2.7
2018-06-14T11:08:34.236Z,3.8
2018-06-14T11:18:49.285Z,3.3
2018-06-14T11:29:03.786Z,3.3
2018-06-14T11:39:24.639Z,3.2
2018-06-14T11:49:38.681Z,2.8
2018-06-14T11:59:52.418Z,5.0
2018-06-14T12:10:16.927Z,3.2
2018-06-14T12:20:31.239Z,3.0
2018-06-14T12:30:53.343Z,3.2
2018-06-14T12:41:14.611Z,2.6
2018-06-14T12:51:28.757Z,3.0
2018-06-14T13:01:43.030Z,3.0
2018-06-14T13:12:38.873Z,3.3
2018-06-14T13:22:53.366Z,2.3
2018-06-14T13:33:44.989Z,3.8
2018-06-14T13:44:00.172Z,2.8
2018-06-14T13:54:14.249Z,3.2
2018-06-14T14:05:08.345Z,3.7
2018-06-14T14:15:22.372Z,4.0
2018-06-14T14:26:07.024Z,3.7
2018-06-14T14:36:21.262Z,2.6
2018-06-14T14:47:14.505Z,4.3
2018-06-14T14:57:28.536Z,3.3
2018-06-14T15:10:43.782Z,3.7
2018-06-14T16:16:07.560Z,6.2
2018-06-14T16:26:44.480Z,6.3
2018-06-14T16:37:13.630Z,5.2
2018-06-14T17:51:35.147Z,6.5
2018-06-14T19:47:47.868Z,11.3
2018-06-14T19:58:33.885Z,9.3
2018-06-14T20:08:57.214Z,6.0
2018-06-14T20:19:27.192Z,8.2
2018-06-14T20:30:39.228Z,10.9
2018-06-14T21:02:01.394Z,7.5
2018-06-14T21:12:36.612Z,8.3
2018-06-14T21:22:58.432Z,6.6
2018-06-14T21:43:42.366Z,9.0
2018-06-14T21:53:58.741Z,8.1
2018-06-14T22:14:50.454Z,8.0
2018-06-14T22:25:22.634Z,10.0
2018-06-14T22:37:03.503Z,13.5
2018-06-14T22:48:02.894Z,16.5
2018-06-14T22:58:40.389Z,12.3
2018-06-14T23:09:07.032Z,7.7
2018-06-14T23:30:06.475Z,13.0
2018-06-14T23:40:47.939Z,12.2
2018-06-14T23:51:11.573Z,11.9
